Detall de PIREP

Printer-friendly versionPDF version

[2013/01/25 09:01:00]
Flight IATA:CT3125
Pilot Number:042
Company ICAO:CAT
Aircraft Type:C750/F
PAX:2
Departing Airport: LEVC
Destination Airport: LFMP
Alternate Airport:LFBO
Online: VATSIM
Route:SOPET B28 BCN R870 DALIN A67 BGR A27 KANIG
Flight Level:F240
No Slew and time accel
No pause
Crash detect
Detect pilot in Cockpit between each 30 and 45 minutes
09:01 Zero fuel Weight: 22922 Lbs, Fuel Weight: 12971 Lbs
09:01 VATSIM:LEVC 250830Z 29005KT CAVOK 08/01 Q1014 NOSIG
09:01 VATSIM:LFMP 250830Z 30024G35KT CAVOK 06/M03 Q1011 TEMPO 31020G35KT
09:01 VOICE CATALONIAN
09:12 Parking Brakes off
09:18 Take-off
09:18 Take off Weight: 35766 Lbs
09:18 Wind: 213º @ 006 Knots Heading: 294º
09:18 POS N39º 29´ 29´´ W000º 29´ 17´´
09:18 Gear Up: 160 Knots
09:18 Flaps:4 at 160 Knots
09:18 Flaps:3 at 173 Knots
09:19 Flaps:2 at 202 Knots
09:19 Flaps:0 at 237 Knots
09:26 TOC
09:26 Fuel Weight: 12430 Lb
09:33 Wind:312º@049 Knots Heading: 041º Ground Speed: 447 Knots Altitude 23979 ft
09:48 Wind:314º@053 Knots Heading: 059º Ground Speed: 468 Knots Altitude 23943 ft
09:51 TOD
09:51 Fuel Weight: 11729 Lb
10:01 Flaps:2 at 258 Knots
10:03 Wind:306º@021 Knots Heading: 311º Ground Speed: 236 Knots Altitude 7933 ft
10:04 Flaps:3 at 230 Knots
10:07 Gear Down: 150 Knots
10:07 Flaps:4 at 150 Knots
10:08 Flaps:5 at 142 Knots
10:11 TouchDown:Rate -583 ft/min Speed: 115 Knots
10:11 VATSIM:LFMP 251000Z 31023KT CAVOK 08/M03 Q1013 TEMPO 31020G35KT
10:11 Land
10:11 Wind:002º@002 Knots
10:11 Heading: 329º
10:11 Flight Duration: 00:53
10:11 Landing Weight: 34390 Lbs
10:11 POS N42º 44´ 48´´ E002º 52´ 04´´
10:18 Parking brakes on
10:18 Block to Block Duration: 01:06
10:18 Final Fuel: 11404 Lbls
10:18 Spent Fuel: 1567 Lbls
10:18 Flight Length: 323 NM
10:18 TOD Land Length: 91 NM

Exportar CSV

Powered by Drupal - Modified by Danger4k